Time;durP1;ratioP1;P1;durP2;ratioP2;P2;SDS_P1;SDS_P2;PMS_P1;PMS_P2;Temp;Humidity;BMP_temperature;BMP_pressure;BME280_temperature;BME280_humidity;BME280_pressure;Samples;Min_cycle;Max_cycle;Signal;HPM_P1;HPM_P2
2021/10/27 00:02:13;;;;;;;0.40;0.30;;;;;;;11.43;96.02;101627.59;5016426;28;20848;-74
2021/10/27 00:04:40;;;;;;;0.40;0.30;;;;;;;11.46;96.24;101631.66;5016263;28;20470;-73
2021/10/27 00:07:06;;;;;;;0.40;0.20;;;;;;;11.49;95.90;101636.50;5016294;28;20464;-73
2021/10/27 00:09:33;;;;;;;4.17;2.20;;;;;;;11.54;96.09;101639.19;5016381;28;20440;-74
2021/10/27 00:11:59;;;;;;;0.40;0.30;;;;;;;11.56;95.17;101642.44;5016318;28;20439;-73
2021/10/27 00:14:27;;;;;;;0.40;0.27;;;;;;;11.61;94.97;101639.69;5016297;28;20462;-74
2021/10/27 00:16:54;;;;;;;0.40;0.30;;;;;;;11.65;94.98;101639.94;5016174;28;20919;-73
2021/10/27 00:19:20;;;;;;;0.40;0.23;;;;;;;11.72;94.20;101645.84;5016199;28;20868;-74
2021/10/27 00:21:47;;;;;;;0.40;0.20;;;;;;;11.76;93.88;101647.72;5016094;28;20515;-74
2021/10/27 00:24:13;;;;;;;0.40;0.30;;;;;;;11.75;93.87;101643.38;5016094;28;20444;-74
2021/10/27 00:26:40;;;;;;;0.40;0.30;;;;;;;11.75;93.56;101646.09;5015735;28;20467;-74
2021/10/27 00:29:06;;;;;;;0.40;0.30;;;;;;;11.72;93.08;101660.22;5016006;28;20803;-74
2021/10/27 00:31:34;;;;;;;0.40;0.30;;;;;;;11.74;93.51;101649.13;5015974;28;20447;-74
2021/10/27 00:34:01;;;;;;;0.40;0.30;;;;;;;11.73;93.85;101644.75;5015925;28;20451;-73
2021/10/27 00:36:27;;;;;;;0.40;0.30;;;;;;;11.71;93.63;101645.03;5015858;28;20467;-73
2021/10/27 00:38:54;;;;;;;0.40;0.20;;;;;;;11.70;94.05;101638.00;5015843;28;20444;-74
2021/10/27 00:41:20;;;;;;;0.40;0.30;;;;;;;11.67;94.01;101635.03;5015713;28;20451;-73
2021/10/27 00:43:47;;;;;;;0.40;0.30;;;;;;;11.64;94.30;101630.97;5015802;28;20487;-73
2021/10/27 00:46:21;;;;;;;0.40;0.30;;;;;;;11.66;94.23;101626.09;5014473;28;20475;-73
2021/10/27 00:48:50;;;;;;;0.40;0.30;;;;;;;11.68;93.82;101623.09;5015608;28;20451;-74
2021/10/27 00:51:17;;;;;;;0.40;0.30;;;;;;;11.68;94.18;101625.78;5015462;28;20822;-73
2021/10/27 00:53:44;;;;;;;0.40;0.30;;;;;;;11.68;94.32;101621.19;5015547;28;20493;-73
2021/10/27 00:56:11;;;;;;;0.40;0.30;;;;;;;11.69;94.52;101627.44;5015131;28;20467;-73
2021/10/27 00:58:38;;;;;;;0.40;0.20;;;;;;;11.67;94.64;101629.59;5015172;28;20926;-73
2021/10/27 01:01:05;;;;;;;0.40;0.30;;;;;;;11.71;94.33;101628.75;5015073;28;20941;-73
2021/10/27 01:03:35;;;;;;;0.40;0.23;;;;;;;11.72;94.29;101627.66;5015291;28;20495;-73
2021/10/27 01:06:04;;;;;;;0.40;0.30;;;;;;;11.70;94.47;101626.34;5014883;28;21071;-73
2021/10/27 01:08:32;;;;;;;0.40;0.23;;;;;;;11.73;94.16;101625.75;5015238;28;20467;-73
2021/10/27 01:10:59;;;;;;;0.40;0.30;;;;;;;11.77;93.81;101624.09;5015185;28;20470;-74
2021/10/27 01:13:25;;;;;;;0.40;0.30;;;;;;;11.71;94.37;101617.91;5014887;28;20443;-73
2021/10/27 01:15:52;;;;;;;0.40;0.20;;;;;;;11.76;93.89;101626.00;5015029;28;20440;-73
2021/10/27 01:18:18;;;;;;;0.40;0.27;;;;;;;11.77;93.27;101616.75;5015085;28;20447;-73
2021/10/27 01:20:46;;;;;;;0.40;0.30;;;;;;;11.75;93.33;101610.81;5014764;28;21000;-73
2021/10/27 01:23:12;;;;;;;0.40;0.30;;;;;;;11.72;93.75;101619.53;5014869;28;20484;-74
2021/10/27 01:25:39;;;;;;;0.40;0.30;;;;;;;11.71;93.70;101617.91;5014883;28;20471;-74
2021/10/27 01:28:05;;;;;;;0.40;0.30;;;;;;;11.76;93.20;101608.91;5014879;28;20448;-74
2021/10/27 01:30:32;;;;;;;0.40;0.30;;;;;;;11.78;93.02;101612.97;5014929;28;20436;-73
2021/10/27 01:32:58;;;;;;;0.40;0.30;;;;;;;11.77;93.07;101615.97;5014801;28;20447;-74
2021/10/27 01:35:25;;;;;;;0.40;0.30;;;;;;;11.74;93.38;101616.53;5014472;28;20821;-74
2021/10/27 01:37:53;;;;;;;0.40;0.30;;;;;;;11.77;93.25;101624.91;5014670;28;20472;-74
2021/10/27 01:40:20;;;;;;;0.40;0.30;;;;;;;11.79;93.56;101621.94;5014495;28;20448;-74
2021/10/27 01:42:48;;;;;;;0.70;0.50;;;;;;;11.79;93.65;101609.16;5014516;28;20487;-74
2021/10/27 01:45:16;;;;;;;0.40;0.30;;;;;;;11.82;93.79;101610.47;5014607;28;20452;-74
2021/10/27 01:47:44;;;;;;;0.40;0.30;;;;;;;11.80;93.15;101616.22;5014504;28;20503;-75
2021/10/27 01:50:11;;;;;;;0.50;0.50;;;;;;;11.88;92.87;101611.31;5014532;28;20449;-74
2021/10/27 01:52:38;;;;;;;0.40;0.30;;;;;;;11.90;92.83;101614.53;5014114;28;20972;-75
2021/10/27 01:55:07;;;;;;;0.40;0.30;;;;;;;11.92;92.91;101615.06;5014457;28;20440;-75
2021/10/27 01:57:33;;;;;;;0.40;0.30;;;;;;;11.94;92.75;101610.16;5013612;28;20982;-75
2021/10/27 02:00:00;;;;;;;0.40;0.30;;;;;;;11.95;92.65;101618.00;5014180;28;20452;-74
2021/10/27 02:02:26;;;;;;;0.40;0.30;;;;;;;11.95;92.89;101601.72;5013944;28;21019;-75
2021/10/27 02:04:53;;;;;;;0.40;0.30;;;;;;;11.97;92.71;101604.97;5014024;28;20455;-73
2021/10/27 02:07:19;;;;;;;0.40;0.20;;;;;;;11.99;92.64;101607.38;5013865;28;20507;-74
2021/10/27 02:09:46;;;;;;;0.40;0.20;;;;;;;12.00;92.30;101598.16;5014235;28;20452;-74
2021/10/27 02:12:14;;;;;;;0.40;0.30;;;;;;;12.00;92.04;101607.13;5014088;28;20459;-74
2021/10/27 02:14:40;;;;;;;0.40;0.30;;;;;;;12.01;92.17;101600.59;5014083;28;20448;-74
2021/10/27 02:17:07;;;;;;;0.40;0.30;;;;;;;12.02;92.29;101601.41;5013951;28;20519;-74
2021/10/27 02:19:33;;;;;;;0.50;0.50;;;;;;;11.97;92.20;101604.97;5014016;28;20444;-74
2021/10/27 02:22:00;;;;;;;0.40;0.20;;;;;;;11.97;92.33;101599.53;5013938;28;20484;-74
2021/10/27 02:24:26;;;;;;;0.40;0.30;;;;;;;11.99;92.17;101597.34;5013960;28;20440;-73
2021/10/27 02:26:53;;;;;;;0.40;0.30;;;;;;;11.99;91.97;101597.34;5013878;28;20495;-73
2021/10/27 02:29:21;;;;;;;0.40;0.20;;;;;;;12.01;91.70;101597.06;5013876;28;20447;-73
2021/10/27 02:31:48;;;;;;;0.40;0.30;;;;;;;11.94;91.63;101602.00;5013598;28;20961;-73
2021/10/27 02:34:15;;;;;;;0.40;0.30;;;;;;;11.94;91.77;101599.28;5013788;28;20440;-74
2021/10/27 02:36:41;;;;;;;0.40;0.30;;;;;;;11.98;91.99;101603.88;5013709;28;20478;-74
2021/10/27 02:39:09;;;;;;;0.40;0.30;;;;;;;12.00;92.06;101609.03;5013730;28;20452;-74
2021/10/27 02:41:35;;;;;;;0.40;0.30;;;;;;;12.00;92.47;101609.84;5013723;28;20448;-74
2021/10/27 02:44:02;;;;;;;0.40;0.30;;;;;;;12.02;92.51;101614.97;5013580;28;20487;-74
2021/10/27 02:46:30;;;;;;;0.40;0.30;;;;;;;12.02;92.40;101606.81;5013625;28;20496;-74
2021/10/27 02:48:56;;;;;;;0.40;0.30;;;;;;;12.03;92.07;101614.69;5013600;28;20444;-74
2021/10/27 02:51:23;;;;;;;0.40;0.27;;;;;;;11.96;92.96;101618.84;5013515;28;20443;-73
2021/10/27 02:53:49;;;;;;;0.40;0.30;;;;;;;11.97;93.02;101617.75;5013562;28;20440;-74
2021/10/27 02:56:15;;;;;;;0.40;0.30;;;;;;;12.04;91.89;101623.63;5013455;28;20468;-74
2021/10/27 02:58:42;;;;;;;0.40;0.30;;;;;;;12.02;91.67;101615.78;5013516;28;20443;-73
2021/10/27 03:01:09;;;;;;;0.40;0.30;;;;;;;12.06;91.41;101607.88;5013136;28;20980;-73
2021/10/27 03:03:37;;;;;;;0.40;0.20;;;;;;;12.09;91.49;101619.00;5013294;28;20530;-73
2021/10/27 03:06:03;;;;;;;0.40;0.30;;;;;;;12.11;91.62;101616.78;5012930;28;20475;-74
2021/10/27 03:08:30;;;;;;;0.50;0.50;;;;;;;12.14;91.40;101617.31;5013401;28;20444;-74
2021/10/27 03:10:56;;;;;;;0.40;0.30;;;;;;;12.16;90.88;101617.84;5015787;28;20950;-74
2021/10/27 03:13:24;;;;;;;0.40;0.30;;;;;;;12.16;90.86;101617.84;5017413;28;20440;-74
2021/10/27 03:15:50;;;;;;;0.40;0.30;;;;;;;12.11;91.19;101622.22;5017061;28;20964;-74
2021/10/27 03:18:17;;;;;;;0.40;0.20;;;;;;;12.14;90.80;101614.59;5017336;28;20447;-74
2021/10/27 03:20:45;;;;;;;0.60;0.60;;;;;;;12.16;90.57;101617.84;5017319;28;20451;-74
2021/10/27 03:23:11;;;;;;;0.40;0.30;;;;;;;12.18;90.35;101624.63;5018337;28;21079;-74
2021/10/27 03:25:38;;;;;;;0.40;0.30;;;;;;;12.23;90.04;101618.31;5017136;28;20443;-74
2021/10/27 03:28:04;;;;;;;0.40;0.30;;;;;;;12.24;90.28;101622.66;5017130;28;20450;-73
2021/10/27 03:30:31;;;;;;;0.40;0.30;;;;;;;12.25;90.20;101616.13;5017108;28;20446;-73
2021/10/27 03:32:57;;;;;;;0.40;0.30;;;;;;;12.26;89.79;101618.56;5016768;28;20820;-73
2021/10/27 03:35:24;;;;;;;0.40;0.30;;;;;;;12.26;89.97;101613.13;5017047;28;20451;-74
2021/10/27 03:37:52;;;;;;;0.40;0.30;;;;;;;12.29;89.19;101611.72;5016934;28;20467;-73
2021/10/27 03:40:18;;;;;;;0.40;0.30;;;;;;;12.26;89.67;101615.84;5016955;28;20448;-73
2021/10/27 03:42:45;;;;;;;0.40;0.30;;;;;;;12.29;89.79;101612.53;5016837;28;20484;-72
2021/10/27 03:45:11;;;;;;;0.40;0.20;;;;;;;12.30;89.67;101613.34;5016837;28;20480;-71
2021/10/27 03:47:38;;;;;;;0.40;0.30;;;;;;;12.32;89.40;101606.53;5016525;28;20463;-74
2021/10/27 03:50:07;;;;;;;1.63;1.47;;;;;;;12.33;89.16;101615.50;5016369;28;20444;-73
2021/10/27 03:52:34;;;;;;;0.40;0.20;;;;;;;12.35;89.23;101613.28;5016729;28;20444;-69
2021/10/27 03:55:01;;;;;;;0.40;0.23;;;;;;;12.35;89.11;101611.41;5016397;28;20843;-69
2021/10/27 03:57:28;;;;;;;0.40;0.30;;;;;;;12.35;88.88;101614.13;5016547;28;20471;-69
2021/10/27 03:59:54;;;;;;;0.40;0.30;;;;;;;12.34;89.43;101625.25;5016224;28;20956;-69
2021/10/27 04:02:21;;;;;;;0.40;0.30;;;;;;;12.30;89.46;101625.00;5016512;28;20452;-70
2021/10/27 04:04:47;;;;;;;0.40;0.27;;;;;;;12.28;89.78;101624.50;5016279;28;20455;-70
2021/10/27 04:07:14;;;;;;;0.40;0.30;;;;;;;12.33;89.43;101629.88;5016084;28;20463;-70
2021/10/27 04:09:40;;;;;;;0.40;0.30;;;;;;;12.34;89.47;101626.06;5016443;28;20451;-70
2021/10/27 04:12:09;;;;;;;0.40;0.30;;;;;;;12.34;89.45;101628.78;5016380;28;20447;-69
2021/10/27 04:14:36;;;;;;;0.40;0.20;;;;;;;12.32;89.03;101627.47;5016067;28;20494;-70
2021/10/27 04:17:02;;;;;;;0.40;0.30;;;;;;;12.32;89.17;101628.28;5016229;28;20468;-70
2021/10/27 04:19:29;;;;;;;0.40;0.30;;;;;;;12.33;89.22;101629.88;5016014;28;21065;-69
2021/10/27 04:21:55;;;;;;;0.40;0.30;;;;;;;12.28;89.28;101640.81;5015917;28;20455;-70
2021/10/27 04:24:22;;;;;;;0.40;0.30;;;;;;;12.25;89.71;101635.94;5016207;28;20535;-70
2021/10/27 04:26:48;;;;;;;0.40;0.30;;;;;;;12.28;89.32;101642.72;5016565;28;20518;-70
2021/10/27 04:29:16;;;;;;;0.40;0.30;;;;;;;12.30;89.13;101646.75;5016253;28;20448;-70
2021/10/27 04:31:42;;;;;;;0.40;0.30;;;;;;;12.31;88.98;101640.25;5016087;28;20436;-70
2021/10/27 04:34:09;;;;;;;0.40;0.30;;;;;;;12.30;89.32;101640.50;5015685;28;20837;-70
2021/10/27 04:36:35;;;;;;;0.40;0.30;;;;;;;12.32;89.34;101644.56;5015793;28;20471;-70
2021/10/27 04:39:02;;;;;;;0.40;0.30;;;;;;;12.33;89.09;101642.66;5015650;28;20444;-70
2021/10/27 04:41:28;;;;;;;0.40;0.20;;;;;;;12.28;89.57;101654.38;5015787;28;20455;-70
2021/10/27 04:43:54;;;;;;;0.40;0.20;;;;;;;12.27;89.41;101650.06;5015742;28;20518;-69
2021/10/27 04:46:23;;;;;;;0.40;0.20;;;;;;;12.29;89.26;101644.34;5015683;28;20463;-69
2021/10/27 04:48:49;;;;;;;0.40;0.30;;;;;;;12.28;89.55;101643.53;5015706;28;20455;-72
2021/10/27 04:51:16;;;;;;;0.40;0.20;;;;;;;12.30;89.36;101649.47;5015349;28;20913;-72
2021/10/27 04:53:42;;;;;;;0.40;0.30;;;;;;;12.29;89.55;101647.84;5015290;28;20985;-73
2021/10/27 04:56:09;;;;;;;0.40;0.30;;;;;;;12.29;89.72;101655.19;5015360;28;20467;-73
2021/10/27 04:58:35;;;;;;;0.40;0.30;;;;;;;12.30;89.14;101652.19;5015208;28;20961;-73
2021/10/27 05:01:01;;;;;;;2.20;1.80;;;;;;;12.28;89.64;101648.97;5015078;28;21033;-73
2021/10/27 05:03:29;;;;;;;0.40;0.30;;;;;;;12.29;89.24;101641.63;5015369;28;20475;-73
2021/10/27 05:05:56;;;;;;;0.40;0.30;;;;;;;12.30;89.19;101643.22;5014961;28;20459;-72
2021/10/27 05:08:23;;;;;;;0.40;0.30;;;;;;;12.30;89.07;101649.47;5015375;28;20447;-72
2021/10/27 05:10:50;;;;;;;0.40;0.30;;;;;;;12.29;89.46;101645.13;5015094;28;20452;-73
2021/10/27 05:13:18;;;;;;;0.40;0.30;;;;;;;12.27;89.47;101636.47;5014782;28;20440;-72
2021/10/27 05:15:45;;;;;;;0.40;0.30;;;;;;;12.28;89.51;101635.38;5015116;28;20460;-73
2021/10/27 05:18:12;;;;;;;0.40;0.30;;;;;;;12.27;89.43;101635.66;5015072;28;20448;-73
2021/10/27 05:20:40;;;;;;;0.40;0.30;;;;;;;12.24;89.64;101631.59;5014821;28;20447;-72
2021/10/27 05:23:06;;;;;;;0.40;0.30;;;;;;;12.23;89.87;101634.63;5014928;28;20843;-73
2021/10/27 05:25:33;;;;;;;0.40;0.30;;;;;;;12.23;89.75;101642.78;5015003;28;20444;-73
2021/10/27 05:27:59;;;;;;;0.40;0.20;;;;;;;12.13;90.08;101635.53;5014910;28;20464;-72
2021/10/27 05:30:27;;;;;;;0.40;0.20;;;;;;;12.11;90.08;101637.69;5014562;28;20883;-72
2021/10/27 05:32:56;;;;;;;0.40;0.20;;;;;;;12.14;90.26;101637.13;5014141;28;20482;-72
2021/10/27 05:35:23;;;;;;;0.40;0.20;;;;;;;12.18;90.11;101632.75;5014701;28;20444;-73
2021/10/27 05:37:51;;;;;;;0.40;0.30;;;;;;;12.20;89.83;101633.28;5014672;28;20558;-73
2021/10/27 05:40:17;;;;;;;0.40;0.30;;;;;;;12.23;90.02;101642.78;5014543;28;20448;-72
2021/10/27 05:42:45;;;;;;;0.40;0.20;;;;;;;12.20;89.65;101638.72;5014246;28;20791;-73
2021/10/27 05:45:11;;;;;;;0.40;0.30;;;;;;;12.21;90.17;101645.75;5014297;28;20960;-72
2021/10/27 05:47:43;;;;;;;0.40;0.30;;;;;;;12.21;90.25;101647.66;5014523;28;20833;-73
2021/10/27 05:50:24;;;;;;;0.40;0.30;;;;;;;12.24;89.60;101647.09;5014410;28;21021;-73
2021/10/27 05:55:36;;;;;;;1.60;1.50;;;;;;;12.25;89.92;101646.81;5014391;28;20410;-73
2021/10/27 05:58:05;;;;;;;0.40;0.30;;;;;;;12.28;89.81;101648.97;5014315;28;20470;-72
2021/10/27 06:00:32;;;;;;;0.40;0.20;;;;;;;12.28;89.59;101659.81;5014322;28;20503;-72
2021/10/27 06:02:59;;;;;;;0.40;0.20;;;;;;;12.26;90.02;101666.63;5014070;28;20436;-72
2021/10/27 06:05:26;;;;;;;0.40;0.20;;;;;;;12.29;90.02;101666.88;5013827;28;20463;-72
2021/10/27 06:07:54;;;;;;;0.40;0.30;;;;;;;12.31;90.01;101675.56;5014178;28;20460;-72
2021/10/27 06:10:22;;;;;;;0.83;0.83;;;;;;;12.32;89.89;101674.47;5014080;28;20452;-75
2021/10/27 06:12:49;;;;;;;0.40;0.30;;;;;;;12.36;89.89;101677.41;5014130;28;20863;-70
2021/10/27 06:15:17;;;;;;;0.40;0.30;;;;;;;12.35;89.70;101676.63;5013843;28;20444;-72
2021/10/27 06:17:44;;;;;;;0.40;0.30;;;;;;;12.37;89.82;101682.56;5013732;28;20996;-72
2021/10/27 06:20:12;;;;;;;0.60;0.60;;;;;;;12.35;89.67;101687.47;5013690;28;20938;-72
2021/10/27 06:22:39;;;;;;;0.40;0.30;;;;;;;12.40;89.63;101688.53;5014026;28;20444;-71
2021/10/27 06:25:09;;;;;;;0.40;0.30;;;;;;;12.36;89.41;101683.66;5013785;28;20476;-70
2021/10/27 06:27:37;;;;;;;0.40;0.30;;;;;;;12.41;89.74;101692.88;5012956;28;20511;-70
2021/10/27 06:30:08;;;;;;;0.40;0.30;;;;;;;12.41;89.91;101698.31;5013256;28;20443;-71
2021/10/27 06:32:37;;;;;;;0.40;0.20;;;;;;;12.41;89.75;101692.88;5013232;28;20858;-70
2021/10/27 06:35:08;;;;;;;0.40;0.30;;;;;;;12.45;89.68;101696.63;5013157;28;20444;-70
2021/10/27 06:37:47;;;;;;;0.50;0.50;;;;;;;12.42;89.68;101697.19;5013114;28;20922;-70
2021/10/27 06:48:27;;;;;;;0.40;0.30;;;;;;;12.47;89.68;101706.09;5012827;28;20443;-70
2021/10/27 06:50:53;;;;;;;0.40;0.30;;;;;;;12.51;89.83;101703.63;5012951;28;20455;-70
2021/10/27 06:53:20;;;;;;;0.40;0.30;;;;;;;12.45;90.54;101705.59;5012953;28;20444;-70
2021/10/27 06:55:47;;;;;;;0.40;0.20;;;;;;;12.53;90.15;101704.16;5012858;28;20451;-69
2021/10/27 06:58:18;;;;;;;0.40;0.30;;;;;;;12.58;89.89;101706.84;5012835;28;20452;-70
2021/10/27 07:00:47;;;;;;;0.40;0.30;;;;;;;12.62;89.72;101694.28;5013123;28;20514;-70
2021/10/27 07:03:32;;;;;;;0.40;0.30;;;;;;;12.63;89.07;101698.63;5013350;28;20452;-69
2021/10/27 07:06:37;;;;;;;0.40;0.30;;;;;;;12.65;89.08;101701.03;5013052;28;20483;-70
2021/10/27 07:17:20;;;;;;;0.40;0.20;;;;;;;12.71;89.58;101711.59;5013126;28;20494;-69
2021/10/27 07:19:47;;;;;;;0.40;0.30;;;;;;;12.72;89.39;101718.66;5013390;28;20937;-69
2021/10/27 07:22:14;;;;;;;0.40;0.27;;;;;;;12.74;89.14;101724.59;5013297;28;20454;-69
2021/10/27 07:24:41;;;;;;;0.40;0.30;;;;;;;12.75;89.12;101715.38;5012872;28;20840;-69
2021/10/27 07:27:10;;;;;;;0.40;0.30;;;;;;;12.78;89.30;101712.06;5013151;28;20522;-69
2021/10/27 07:29:37;;;;;;;0.40;0.30;;;;;;;12.77;89.19;101724.03;5012999;28;20930;-70
2021/10/27 07:32:06;;;;;;;0.40;0.30;;;;;;;12.77;88.80;101717.78;5013220;28;20440;-69
2021/10/27 07:34:35;;;;;;;0.40;0.30;;;;;;;12.77;89.12;101715.06;5012954;28;20946;-69
2021/10/27 07:39:59;;;;;;;0.40;0.30;;;;;;;12.74;89.65;101721.88;5012989;28;20416;-70
2021/10/27 07:42:27;;;;;;;0.40;0.20;;;;;;;12.70;89.72;101728.97;5013165;28;20432;-70
2021/10/27 07:44:53;;;;;;;0.40;0.30;;;;;;;12.77;89.78;101737.63;5012722;28;21075;-71
2021/10/27 07:47:21;;;;;;;0.40;0.20;;;;;;;12.93;89.31;101746.44;5012897;28;20467;-72
2021/10/27 07:49:47;;;;;;;0.63;0.63;;;;;;;13.05;88.19;101735.16;5012992;28;20451;-71
2021/10/27 07:52:14;;;;;;;0.40;0.30;;;;;;;13.05;88.30;101737.88;5012943;28;20555;-71
2021/10/27 07:54:41;;;;;;;0.40;0.30;;;;;;;13.13;88.43;101742.69;5012969;28;20451;-70
2021/10/27 07:57:08;;;;;;;0.40;0.30;;;;;;;13.25;88.44;101736.88;5015313;28;21023;-70
2021/10/27 07:59:35;;;;;;;0.40;0.20;;;;;;;13.32;87.80;101742.75;5016631;28;20439;-72
2021/10/27 08:02:04;;;;;;;0.40;0.20;;;;;;;13.37;87.11;101750.88;5016565;28;20444;-71
2021/10/27 08:04:30;;;;;;;0.40;0.30;;;;;;;13.33;87.18;101747.94;5016288;28;20490;-71
2021/10/27 08:06:57;;;;;;;0.40;0.30;;;;;;;13.34;87.34;101737.84;5016393;28;20491;-72
2021/10/27 08:09:23;;;;;;;0.40;0.20;;;;;;;13.30;87.56;101745.78;5016402;28;20506;-72
2021/10/27 08:11:50;;;;;;;0.40;0.23;;;;;;;13.28;87.80;101742.56;5016400;28;20440;-71
2021/10/27 08:14:18;;;;;;;0.40;0.20;;;;;;;13.31;87.68;101746.59;5016053;28;20498;-71
2021/10/27 08:16:46;;;;;;;0.40;0.30;;;;;;;13.29;88.17;101740.63;5016201;28;20468;-72
2021/10/27 08:19:13;;;;;;;0.40;0.30;;;;;;;13.32;87.69;101732.69;5016298;28;20542;-71
2021/10/27 08:21:40;;;;;;;0.40;0.20;;;;;;;13.39;87.65;101737.78;5016224;28;20448;-71
2021/10/27 08:24:09;;;;;;;0.40;0.30;;;;;;;13.48;87.76;101740.66;5016058;28;20903;-70
2021/10/27 08:26:35;;;;;;;0.87;0.87;;;;;;;13.49;87.79;101743.09;5016116;28;20498;-71
2021/10/27 08:29:11;;;;;;;0.40;0.30;;;;;;;13.55;87.83;101733.78;5015912;28;20447;-70
2021/10/27 08:31:40;;;;;;;0.40;0.20;;;;;;;13.59;87.45;101733.97;5015956;28;20439;-72
2021/10/27 08:34:13;;;;;;;0.40;0.30;;;;;;;13.66;87.63;101730.91;5015902;28;20506;-71
2021/10/27 08:36:39;;;;;;;0.40;0.30;;;;;;;13.68;87.81;101734.13;5015845;28;20479;-71
2021/10/27 08:39:08;;;;;;;0.40;0.30;;;;;;;13.65;88.41;101740.97;5015820;28;20454;-71
2021/10/27 08:41:35;;;;;;;0.40;0.30;;;;;;;13.73;88.08;101740.34;5015793;28;20443;-70
2021/10/27 08:44:03;;;;;;;0.40;0.20;;;;;;;13.83;88.04;101733.94;5015295;28;20480;-71
2021/10/27 08:46:40;;;;;;;0.40;0.30;;;;;;;13.95;87.43;101744.38;5015642;28;20468;-71
2021/10/27 08:49:08;;;;;;;0.40;0.30;;;;;;;14.03;87.25;101746.41;5015707;28;20432;-71
2021/10/27 08:51:36;;;;;;;0.40;0.30;;;;;;;14.05;87.34;101749.66;5015696;28;20497;-71
2021/10/27 08:54:05;;;;;;;0.40;0.30;;;;;;;14.10;86.91;101752.31;5015627;28;20444;-70
2021/10/27 08:56:31;;;;;;;0.40;0.30;;;;;;;14.11;87.26;101753.94;5015231;28;20997;-71
2021/10/27 08:59:07;;;;;;;0.40;0.30;;;;;;;14.12;87.20;101761.81;5015541;28;20444;-71
2021/10/27 09:01:42;;;;;;;0.40;0.27;;;;;;;14.15;87.75;101771.31;5015551;28;20459;-73
2021/10/27 09:04:26;;;;;;;0.40;0.30;;;;;;;14.23;87.12;101769.84;5015241;28;20483;-72
2021/10/27 09:07:20;;;;;;;0.40;0.20;;;;;;;14.23;87.47;101762.47;5014831;28;20518;-72
2021/10/27 09:15:28;;;;;;;0.40;0.30;;;;;;;14.40;87.35;101761.94;5015118;28;20925;-71
2021/10/27 09:34:59;;;;;;;0.40;0.30;;;;;;;14.92;85.00;101783.69;5014935;28;20791;-72
2021/10/27 10:05:22;;;;;;;0.40;0.30;;;;;;;15.44;82.51;101806.19;5013942;28;21016;-73
2021/10/27 10:07:50;;;;;;;0.40;0.30;;;;;;;15.48;82.69;101821.66;5014193;28;20460;-73
2021/10/27 10:10:19;;;;;;;0.40;0.30;;;;;;;15.51;82.66;101815.59;5014185;28;20467;-73
2021/10/27 10:12:49;;;;;;;0.40;0.30;;;;;;;15.51;82.44;101822.97;5014082;28;20444;-73
2021/10/27 10:15:18;;;;;;;0.40;0.20;;;;;;;15.47;82.03;101819.25;5014156;28;20444;-73
2021/10/27 10:17:46;;;;;;;0.40;0.30;;;;;;;15.44;82.58;101814.38;5014050;28;20508;-73
2021/10/27 10:20:14;;;;;;;0.77;0.77;;;;;;;15.31;82.45;101818.72;5013797;28;20526;-73
2021/10/27 10:22:41;;;;;;;0.40;0.30;;;;;;;15.25;82.69;101820.75;5013986;28;20443;-73
2021/10/27 10:25:32;;;;;;;0.40;0.20;;;;;;;15.11;83.08;101828.91;5013595;28;20865;-73
2021/10/27 10:28:15;;;;;;;0.40;0.30;;;;;;;15.08;83.71;101826.78;5013959;28;20460;-73
2021/10/27 10:30:48;;;;;;;0.40;0.20;;;;;;;15.02;83.66;101825.25;5014200;28;20517;-73
2021/10/27 10:33:16;;;;;;;0.40;0.30;;;;;;;14.91;84.31;101828.47;5013778;28;20459;-73
2021/10/27 10:35:51;;;;;;;0.40;0.20;;;;;;;14.89;84.84;101828.75;5013599;28;20447;-74
2021/10/27 10:38:28;;;;;;;0.40;0.30;;;;;;;14.93;84.83;101824.34;5013558;28;20978;-73
2021/10/27 10:59:57;;;;;;;0.40;0.30;;;;;;;15.08;85.06;101812.31;5013583;28;20467;-72
2021/10/27 11:22:37;;;;;;;0.40;0.30;;;;;;;15.02;85.32;101805.34;5013131;28;20913;-70
2021/10/27 11:25:12;;;;;;;0.40;0.20;;;;;;;15.02;85.26;101813.53;5013028;28;20472;-72
2021/10/27 11:39:43;;;;;;;0.40;0.30;;;;;;;15.05;85.81;101796.53;5003634;28;20471;-71
2021/10/27 11:42:36;;;;;;;0.40;0.30;;;;;;;15.06;85.32;101795.47;5016323;28;20527;-72
2021/10/27 11:48:04;;;;;;;0.40;0.30;;;;;;;15.18;85.77;101790.28;5015392;28;20463;-72
2021/10/27 11:50:34;;;;;;;0.40;0.20;;;;;;;15.21;84.94;101791.63;5016218;28;20517;-72
2021/10/27 11:53:04;;;;;;;0.40;0.20;;;;;;;15.22;85.13;101788.56;5016422;28;20454;-72
2021/10/27 11:55:33;;;;;;;0.40;0.30;;;;;;;15.23;85.75;101786.66;5016525;28;20483;-72
2021/10/27 11:58:01;;;;;;;0.40;0.20;;;;;;;15.25;84.75;101787.19;5016294;28;20495;-72
2021/10/27 12:00:33;;;;;;;0.40;0.30;;;;;;;15.19;85.01;101786.47;5016669;28;20448;-71
2021/10/27 12:03:05;;;;;;;0.40;0.30;;;;;;;15.17;85.77;101780.50;5016343;28;20810;-71
2021/10/27 12:05:39;;;;;;;0.40;0.30;;;;;;;15.21;85.17;101780.69;5016204;28;20490;-71
2021/10/27 12:08:18;;;;;;;0.40;0.30;;;;;;;15.21;85.37;101786.16;5016437;28;20431;-71
2021/10/27 12:11:01;;;;;;;0.40;0.30;;;;;;;15.18;84.92;101782.09;5016470;28;20424;-71
2021/10/27 12:13:49;;;;;;;0.40;0.20;;;;;;;15.17;85.08;101780.50;5016149;28;20436;-71
2021/10/27 12:16:31;;;;;;;0.40;0.30;;;;;;;15.10;85.88;101775.44;5016298;28;20528;-71
2021/10/27 12:19:01;;;;;;;0.40;0.30;;;;;;;15.11;85.73;101770.78;5016412;28;20428;-71
2021/10/27 12:21:29;;;;;;;0.40;0.30;;;;;;;15.07;85.88;101772.50;5016282;28;20452;-71
2021/10/27 12:23:56;;;;;;;0.40;0.20;;;;;;;15.08;85.92;101769.47;5016202;28;20447;-71
2021/10/27 12:26:24;;;;;;;0.40;0.20;;;;;;;15.06;86.46;101768.16;5015948;28;20494;-71
2021/10/27 12:29:01;;;;;;;0.40;0.30;;;;;;;15.08;86.24;101765.94;5016091;28;20444;-71
2021/10/27 12:31:28;;;;;;;0.40;0.30;;;;;;;15.08;86.34;101760.47;5016170;28;20440;-71
2021/10/27 12:33:56;;;;;;;0.40;0.30;;;;;;;15.09;86.31;101756.63;5016058;28;20448;-71
2021/10/27 12:36:28;;;;;;;0.40;0.30;;;;;;;15.07;86.31;101758.88;5015988;28;20464;-71
2021/10/27 12:39:15;;;;;;;0.40;0.30;;;;;;;15.07;86.59;101750.69;5015713;28;20909;-71
2021/10/27 12:41:44;;;;;;;0.40;0.20;;;;;;;15.07;87.08;101754.22;5015735;28;20472;-71
2021/10/27 12:44:22;;;;;;;0.40;0.20;;;;;;;15.11;86.64;101751.69;5015782;28;20540;-71
2021/10/27 12:47:02;;;;;;;0.40;0.30;;;;;;;15.08;87.66;101763.19;5015699;28;20519;-71
2021/10/27 12:49:28;;;;;;;0.40;0.20;;;;;;;15.13;87.11;101757.66;5015728;28;20470;-71
2021/10/27 12:51:55;;;;;;;0.40;0.20;;;;;;;15.12;87.16;101756.84;5015644;28;20448;-71
2021/10/27 12:54:29;;;;;;;0.40;0.30;;;;;;;15.14;87.45;101753.81;5015690;28;20836;-71
2021/10/27 12:57:05;;;;;;;0.40;0.20;;;;;;;15.17;86.98;101758.66;5015477;28;21044;-71
2021/10/27 12:59:34;;;;;;;0.40;0.20;;;;;;;15.17;87.21;101758.66;5016313;28;20431;-72
2021/10/27 13:02:08;;;;;;;0.40;0.30;;;;;;;15.17;86.31;101755.94;5015698;28;20451;-71
2021/10/27 13:04:40;;;;;;;0.40;0.30;;;;;;;15.16;86.96;101756.25;5015174;28;20867;-71
2021/10/27 13:07:10;;;;;;;0.40;0.30;;;;;;;15.16;86.67;101750.78;5015323;28;21067;-70
2021/10/27 13:12:43;;;;;;;0.40;0.30;;;;;;;15.16;86.78;101748.84;5014725;28;21029;-70
2021/10/27 13:15:19;;;;;;;0.40;0.30;;;;;;;15.17;86.42;101758.66;5015260;28;20452;-70
2021/10/27 13:20:50;;;;;;;0.40;0.30;;;;;;;15.15;86.19;101760.91;5014695;28;20451;-70
2021/10/27 13:23:39;;;;;;;0.40;0.20;;;;;;;15.10;86.83;101748.16;5015085;28;20432;-70
2021/10/27 13:31:38;;;;;;;0.40;0.27;;;;;;;15.19;87.15;101750.19;5014848;28;20496;-70
2021/10/27 13:34:05;;;;;;;0.40;0.20;;;;;;;15.20;87.26;101752.59;5014643;28;20459;-70
2021/10/27 13:36:31;;;;;;;0.40;0.30;;;;;;;15.19;86.65;101756.44;5014786;28;20464;-69
2021/10/27 13:39:00;;;;;;;0.40;0.30;;;;;;;15.20;86.91;101746.34;5014875;28;20451;-70
2021/10/27 13:41:27;;;;;;;0.40;0.20;;;;;;;15.19;87.16;101745.53;5014795;28;20450;-70
2021/10/27 13:43:58;;;;;;;0.40;0.20;;;;;;;15.23;87.01;101749.28;5014724;28;20457;-70
2021/10/27 13:46:52;;;;;;;0.50;0.40;;;;;;;15.19;87.15;101740.06;5014323;28;20548;-70
2021/10/27 13:49:39;;;;;;;0.40;0.23;;;;;;;15.17;87.68;101742.28;5014673;28;20527;-70
2021/10/27 14:06:01;;;;;;;0.40;0.20;;;;;;;15.21;87.11;101737.03;5014010;28;20905;-70